sensor_id;sensor_type;location;lat;lon;timestamp;temperature;humidity
17619;DHT22;8928;51.678;6.074;2022-09-09T00:02:30;13.40;99.90
17619;DHT22;8928;51.678;6.074;2022-09-09T00:05:26;13.30;99.90
17619;DHT22;8928;51.678;6.074;2022-09-09T00:08:19;13.30;99.90
17619;DHT22;8928;51.678;6.074;2022-09-09T00:11:09;13.30;99.90
17619;DHT22;8928;51.678;6.074;2022-09-09T00:14:03;13.30;99.90
17619;DHT22;8928;51.678;6.074;2022-09-09T00:17:06;13.30;99.90
17619;DHT22;8928;51.678;6.074;2022-09-09T00:19:59;13.20;99.90
17619;DHT22;8928;51.678;6.074;2022-09-09T00:22:52;13.20;99.90
17619;DHT22;8928;51.678;6.074;2022-09-09T00:25:48;13.20;99.90
17619;DHT22;8928;51.678;6.074;2022-09-09T00:28:41;13.20;99.90
17619;DHT22;8928;51.678;6.074;2022-09-09T00:31:32;13.30;99.90
17619;DHT22;8928;51.678;6.074;2022-09-09T00:34:22;13.30;99.90
17619;DHT22;8928;51.678;6.074;2022-09-09T00:37:10;13.30;99.90
17619;DHT22;8928;51.678;6.074;2022-09-09T00:39:59;13.30;99.90
17619;DHT22;8928;51.678;6.074;2022-09-09T00:42:54;13.20;99.90
17619;DHT22;8928;51.678;6.074;2022-09-09T00:49:05;13.10;99.90
17619;DHT22;8928;51.678;6.074;2022-09-09T00:52:06;13.00;99.90
17619;DHT22;8928;51.678;6.074;2022-09-09T00:55:03;13.00;99.90
17619;DHT22;8928;51.678;6.074;2022-09-09T00:57:52;13.00;99.90
17619;DHT22;8928;51.678;6.074;2022-09-09T01:00:43;13.00;99.90
17619;DHT22;8928;51.678;6.074;2022-09-09T01:03:34;13.00;99.90
17619;DHT22;8928;51.678;6.074;2022-09-09T01:06:30;13.00;99.90
17619;DHT22;8928;51.678;6.074;2022-09-09T01:09:21;12.90;99.90
17619;DHT22;8928;51.678;6.074;2022-09-09T01:12:15;12.90;99.90
17619;DHT22;8928;51.678;6.074;2022-09-09T01:15:09;12.80;99.90
17619;DHT22;8928;51.678;6.074;2022-09-09T01:18:00;12.80;99.90
17619;DHT22;8928;51.678;6.074;2022-09-09T01:20:54;12.80;99.90
17619;DHT22;8928;51.678;6.074;2022-09-09T01:23:54;12.80;99.90
17619;DHT22;8928;51.678;6.074;2022-09-09T01:26:50;12.70;99.90
17619;DHT22;8928;51.678;6.074;2022-09-09T01:29:39;12.80;99.90
17619;DHT22;8928;51.678;6.074;2022-09-09T01:32:41;12.80;99.90
17619;DHT22;8928;51.678;6.074;2022-09-09T01:35:39;12.80;99.90
17619;DHT22;8928;51.678;6.074;2022-09-09T01:38:30;12.80;99.90
17619;DHT22;8928;51.678;6.074;2022-09-09T01:41:18;12.70;99.90
17619;DHT22;8928;51.678;6.074;2022-09-09T01:44:07;12.70;99.90
17619;DHT22;8928;51.678;6.074;2022-09-09T01:46:55;12.70;99.90
17619;DHT22;8928;51.678;6.074;2022-09-09T01:49:42;12.70;99.90
17619;DHT22;8928;51.678;6.074;2022-09-09T01:52:30;12.60;99.90
17619;DHT22;8928;51.678;6.074;2022-09-09T01:55:19;12.60;99.90
17619;DHT22;8928;51.678;6.074;2022-09-09T01:58:18;12.50;99.90
17619;DHT22;8928;51.678;6.074;2022-09-09T02:01:14;12.50;99.90
17619;DHT22;8928;51.678;6.074;2022-09-09T02:04:07;12.60;99.90
17619;DHT22;8928;51.678;6.074;2022-09-09T02:06:57;12.60;99.90
17619;DHT22;8928;51.678;6.074;2022-09-09T02:09:48;12.50;99.90
17619;DHT22;8928;51.678;6.074;2022-09-09T02:12:40;12.50;99.90
17619;DHT22;8928;51.678;6.074;2022-09-09T02:15:31;12.40;99.90
17619;DHT22;8928;51.678;6.074;2022-09-09T02:18:25;12.40;99.90
17619;DHT22;8928;51.678;6.074;2022-09-09T02:21:14;12.40;99.90
17619;DHT22;8928;51.678;6.074;2022-09-09T02:24:05;12.40;99.90
17619;DHT22;8928;51.678;6.074;2022-09-09T02:26:56;12.50;99.90
17619;DHT22;8928;51.678;6.074;2022-09-09T02:29:45;12.50;99.90
17619;DHT22;8928;51.678;6.074;2022-09-09T02:32:34;12.50;99.90
17619;DHT22;8928;51.678;6.074;2022-09-09T02:35:23;12.50;99.90
17619;DHT22;8928;51.678;6.074;2022-09-09T02:38:13;12.50;99.90
17619;DHT22;8928;51.678;6.074;2022-09-09T02:41:01;12.50;99.90
17619;DHT22;8928;51.678;6.074;2022-09-09T02:43:49;12.40;99.90
17619;DHT22;8928;51.678;6.074;2022-09-09T02:46:51;12.40;99.90
17619;DHT22;8928;51.678;6.074;2022-09-09T02:49:45;12.50;99.90
17619;DHT22;8928;51.678;6.074;2022-09-09T02:52:52;12.50;99.90
17619;DHT22;8928;51.678;6.074;2022-09-09T02:55:46;12.50;99.90
17619;DHT22;8928;51.678;6.074;2022-09-09T02:58:34;12.50;99.90
17619;DHT22;8928;51.678;6.074;2022-09-09T03:01:21;12.50;99.90
17619;DHT22;8928;51.678;6.074;2022-09-09T03:04:08;12.50;99.90
17619;DHT22;8928;51.678;6.074;2022-09-09T03:06:55;12.50;99.90
17619;DHT22;8928;51.678;6.074;2022-09-09T03:09:44;12.50;99.90
17619;DHT22;8928;51.678;6.074;2022-09-09T03:12:31;12.50;99.90
17619;DHT22;8928;51.678;6.074;2022-09-09T03:15:20;12.40;99.90
17619;DHT22;8928;51.678;6.074;2022-09-09T03:18:08;12.40;99.90
17619;DHT22;8928;51.678;6.074;2022-09-09T03:20:55;12.40;99.90
17619;DHT22;8928;51.678;6.074;2022-09-09T03:23:43;12.30;99.90
17619;DHT22;8928;51.678;6.074;2022-09-09T03:26:33;12.30;99.90
17619;DHT22;8928;51.678;6.074;2022-09-09T03:29:20;12.30;99.90
17619;DHT22;8928;51.678;6.074;2022-09-09T03:32:07;12.30;99.90
17619;DHT22;8928;51.678;6.074;2022-09-09T03:34:55;12.40;99.90
17619;DHT22;8928;51.678;6.074;2022-09-09T03:37:42;12.40;99.90
17619;DHT22;8928;51.678;6.074;2022-09-09T03:40:29;12.40;99.90
17619;DHT22;8928;51.678;6.074;2022-09-09T03:43:18;12.60;99.90
17619;DHT22;8928;51.678;6.074;2022-09-09T03:46:07;12.70;99.90
17619;DHT22;8928;51.678;6.074;2022-09-09T03:48:54;12.80;99.90
17619;DHT22;8928;51.678;6.074;2022-09-09T03:51:42;12.90;99.90
17619;DHT22;8928;51.678;6.074;2022-09-09T03:54:29;13.00;99.90
17619;DHT22;8928;51.678;6.074;2022-09-09T03:57:16;13.10;99.90
17619;DHT22;8928;51.678;6.074;2022-09-09T04:00:07;13.10;99.90
17619;DHT22;8928;51.678;6.074;2022-09-09T04:02:54;13.20;99.90
17619;DHT22;8928;51.678;6.074;2022-09-09T04:05:43;13.20;99.90
17619;DHT22;8928;51.678;6.074;2022-09-09T04:08:30;13.30;99.90
17619;DHT22;8928;51.678;6.074;2022-09-09T04:11:18;13.40;99.90
17619;DHT22;8928;51.678;6.074;2022-09-09T04:14:05;13.40;99.90
17619;DHT22;8928;51.678;6.074;2022-09-09T04:16:54;13.50;99.90
17619;DHT22;8928;51.678;6.074;2022-09-09T04:19:43;13.50;99.90
17619;DHT22;8928;51.678;6.074;2022-09-09T04:22:30;13.50;99.90
17619;DHT22;8928;51.678;6.074;2022-09-09T04:25:17;13.60;99.90
17619;DHT22;8928;51.678;6.074;2022-09-09T04:28:04;13.50;99.90
17619;DHT22;8928;51.678;6.074;2022-09-09T04:30:52;13.60;99.90
17619;DHT22;8928;51.678;6.074;2022-09-09T04:33:40;13.60;99.90
17619;DHT22;8928;51.678;6.074;2022-09-09T04:36:27;13.70;99.90
17619;DHT22;8928;51.678;6.074;2022-09-09T04:39:14;13.70;99.90
17619;DHT22;8928;51.678;6.074;2022-09-09T04:42:01;13.80;99.90
17619;DHT22;8928;51.678;6.074;2022-09-09T04:44:48;13.80;99.90
17619;DHT22;8928;51.678;6.074;2022-09-09T04:47:35;13.80;99.90
17619;DHT22;8928;51.678;6.074;2022-09-09T04:50:24;13.90;99.90
17619;DHT22;8928;51.678;6.074;2022-09-09T04:53:11;13.90;99.90
17619;DHT22;8928;51.678;6.074;2022-09-09T04:56:03;13.90;99.90
17619;DHT22;8928;51.678;6.074;2022-09-09T04:58:50;13.90;99.90
17619;DHT22;8928;51.678;6.074;2022-09-09T05:01:37;13.90;99.90
17619;DHT22;8928;51.678;6.074;2022-09-09T05:04:24;13.90;99.90
17619;DHT22;8928;51.678;6.074;2022-09-09T05:07:12;13.90;99.90
17619;DHT22;8928;51.678;6.074;2022-09-09T05:10:00;13.90;99.90
17619;DHT22;8928;51.678;6.074;2022-09-09T05:12:52;14.00;99.90
17619;DHT22;8928;51.678;6.074;2022-09-09T05:15:40;14.00;99.90
17619;DHT22;8928;51.678;6.074;2022-09-09T05:18:28;13.90;99.90
17619;DHT22;8928;51.678;6.074;2022-09-09T05:21:17;14.00;99.90
17619;DHT22;8928;51.678;6.074;2022-09-09T05:24:05;14.00;99.90
17619;DHT22;8928;51.678;6.074;2022-09-09T05:26:53;14.00;99.90
17619;DHT22;8928;51.678;6.074;2022-09-09T05:29:44;14.10;99.90
17619;DHT22;8928;51.678;6.074;2022-09-09T05:32:31;14.10;99.90
17619;DHT22;8928;51.678;6.074;2022-09-09T05:35:19;14.20;99.90
17619;DHT22;8928;51.678;6.074;2022-09-09T05:38:06;14.20;99.90
17619;DHT22;8928;51.678;6.074;2022-09-09T05:40:55;14.20;99.90
17619;DHT22;8928;51.678;6.074;2022-09-09T05:43:43;14.20;99.90
17619;DHT22;8928;51.678;6.074;2022-09-09T05:46:31;14.10;99.90
17619;DHT22;8928;51.678;6.074;2022-09-09T05:49:18;14.10;99.90
17619;DHT22;8928;51.678;6.074;2022-09-09T05:52:05;14.10;99.90
17619;DHT22;8928;51.678;6.074;2022-09-09T05:54:52;14.10;99.90
17619;DHT22;8928;51.678;6.074;2022-09-09T05:57:48;14.10;99.90
17619;DHT22;8928;51.678;6.074;2022-09-09T06:00:35;14.20;99.90
17619;DHT22;8928;51.678;6.074;2022-09-09T06:03:23;14.20;99.90
17619;DHT22;8928;51.678;6.074;2022-09-09T06:06:12;14.30;99.90
17619;DHT22;8928;51.678;6.074;2022-09-09T06:08:59;14.40;99.90
17619;DHT22;8928;51.678;6.074;2022-09-09T06:11:46;14.50;99.90
17619;DHT22;8928;51.678;6.074;2022-09-09T06:14:34;14.60;99.90
17619;DHT22;8928;51.678;6.074;2022-09-09T06:17:22;14.70;99.90
17619;DHT22;8928;51.678;6.074;2022-09-09T06:20:09;14.80;99.90
17619;DHT22;8928;51.678;6.074;2022-09-09T06:22:56;14.90;99.90
17619;DHT22;8928;51.678;6.074;2022-09-09T06:25:43;15.00;99.90
17619;DHT22;8928;51.678;6.074;2022-09-09T06:28:31;15.00;99.90
17619;DHT22;8928;51.678;6.074;2022-09-09T06:31:21;15.00;99.90
17619;DHT22;8928;51.678;6.074;2022-09-09T06:34:08;15.00;99.90
17619;DHT22;8928;51.678;6.074;2022-09-09T06:36:56;15.00;99.90
17619;DHT22;8928;51.678;6.074;2022-09-09T06:39:44;15.00;99.90
17619;DHT22;8928;51.678;6.074;2022-09-09T06:42:31;15.00;99.90
17619;DHT22;8928;51.678;6.074;2022-09-09T06:45:18;15.10;99.90
17619;DHT22;8928;51.678;6.074;2022-09-09T06:48:06;15.10;99.90
17619;DHT22;8928;51.678;6.074;2022-09-09T06:51:01;15.20;99.90
17619;DHT22;8928;51.678;6.074;2022-09-09T06:53:51;15.30;99.90
17619;DHT22;8928;51.678;6.074;2022-09-09T06:56:40;15.40;99.90
17619;DHT22;8928;51.678;6.074;2022-09-09T06:59:27;15.40;99.90
17619;DHT22;8928;51.678;6.074;2022-09-09T07:02:16;15.50;99.90
17619;DHT22;8928;51.678;6.074;2022-09-09T07:05:06;15.50;99.90
17619;DHT22;8928;51.678;6.074;2022-09-09T07:07:53;15.60;99.90
17619;DHT22;8928;51.678;6.074;2022-09-09T07:10:41;15.70;99.90
17619;DHT22;8928;51.678;6.074;2022-09-09T07:13:30;15.90;99.90
17619;DHT22;8928;51.678;6.074;2022-09-09T07:16:19;16.00;99.90
17619;DHT22;8928;51.678;6.074;2022-09-09T07:19:06;16.20;99.90
17619;DHT22;8928;51.678;6.074;2022-09-09T07:21:54;16.30;99.90
17619;DHT22;8928;51.678;6.074;2022-09-09T07:24:41;16.20;99.90
17619;DHT22;8928;51.678;6.074;2022-09-09T07:27:30;16.10;99.90
17619;DHT22;8928;51.678;6.074;2022-09-09T07:30:17;16.10;99.90
17619;DHT22;8928;51.678;6.074;2022-09-09T07:33:05;16.20;99.90
17619;DHT22;8928;51.678;6.074;2022-09-09T07:35:52;16.40;99.90
17619;DHT22;8928;51.678;6.074;2022-09-09T07:38:43;16.50;99.90
17619;DHT22;8928;51.678;6.074;2022-09-09T07:41:33;16.60;99.90
17619;DHT22;8928;51.678;6.074;2022-09-09T07:44:23;16.70;99.90
17619;DHT22;8928;51.678;6.074;2022-09-09T07:47:12;16.70;99.90
17619;DHT22;8928;51.678;6.074;2022-09-09T07:49:59;16.70;99.90
17619;DHT22;8928;51.678;6.074;2022-09-09T07:52:47;16.80;99.90
17619;DHT22;8928;51.678;6.074;2022-09-09T07:55:35;17.00;99.90
17619;DHT22;8928;51.678;6.074;2022-09-09T07:58:22;17.20;99.90
17619;DHT22;8928;51.678;6.074;2022-09-09T08:01:10;17.50;99.90
17619;DHT22;8928;51.678;6.074;2022-09-09T08:04:00;17.70;99.90
17619;DHT22;8928;51.678;6.074;2022-09-09T08:06:49;17.90;99.90
17619;DHT22;8928;51.678;6.074;2022-09-09T08:09:38;18.00;99.90
17619;DHT22;8928;51.678;6.074;2022-09-09T08:12:26;17.90;99.90
17619;DHT22;8928;51.678;6.074;2022-09-09T08:15:14;17.90;99.90
17619;DHT22;8928;51.678;6.074;2022-09-09T08:18:01;18.10;99.90
17619;DHT22;8928;51.678;6.074;2022-09-09T08:20:48;18.10;99.90
17619;DHT22;8928;51.678;6.074;2022-09-09T08:23:36;18.00;99.90
17619;DHT22;8928;51.678;6.074;2022-09-09T08:26:24;18.00;99.90
17619;DHT22;8928;51.678;6.074;2022-09-09T08:29:15;17.90;99.90
17619;DHT22;8928;51.678;6.074;2022-09-09T08:32:02;18.00;99.90
17619;DHT22;8928;51.678;6.074;2022-09-09T08:34:50;18.20;99.90
17619;DHT22;8928;51.678;6.074;2022-09-09T08:37:37;18.50;99.90
17619;DHT22;8928;51.678;6.074;2022-09-09T08:40:29;18.60;99.90
17619;DHT22;8928;51.678;6.074;2022-09-09T08:43:20;18.90;99.90
17619;DHT22;8928;51.678;6.074;2022-09-09T08:46:16;19.00;99.90
17619;DHT22;8928;51.678;6.074;2022-09-09T08:49:17;19.10;99.90
17619;DHT22;8928;51.678;6.074;2022-09-09T08:52:08;19.00;99.90
17619;DHT22;8928;51.678;6.074;2022-09-09T08:55:20;18.80;99.90
17619;DHT22;8928;51.678;6.074;2022-09-09T08:58:13;18.70;99.90
17619;DHT22;8928;51.678;6.074;2022-09-09T09:01:15;18.80;99.90
17619;DHT22;8928;51.678;6.074;2022-09-09T09:04:07;19.10;99.90
17619;DHT22;8928;51.678;6.074;2022-09-09T09:07:07;19.20;99.90
17619;DHT22;8928;51.678;6.074;2022-09-09T09:10:02;19.40;99.90
17619;DHT22;8928;51.678;6.074;2022-09-09T09:12:50;19.50;99.90
17619;DHT22;8928;51.678;6.074;2022-09-09T09:15:38;19.60;99.90
17619;DHT22;8928;51.678;6.074;2022-09-09T09:18:31;19.70;99.90
17619;DHT22;8928;51.678;6.074;2022-09-09T09:21:24;19.70;99.90
17619;DHT22;8928;51.678;6.074;2022-09-09T09:24:18;19.70;99.90
17619;DHT22;8928;51.678;6.074;2022-09-09T09:27:12;19.70;99.90
17619;DHT22;8928;51.678;6.074;2022-09-09T09:30:01;19.60;99.90
17619;DHT22;8928;51.678;6.074;2022-09-09T09:32:52;19.60;99.90
17619;DHT22;8928;51.678;6.074;2022-09-09T09:35:42;19.80;99.90
17619;DHT22;8928;51.678;6.074;2022-09-09T09:38:29;20.30;99.90
17619;DHT22;8928;51.678;6.074;2022-09-09T09:41:16;20.70;99.90
17619;DHT22;8928;51.678;6.074;2022-09-09T09:44:04;21.00;99.90
17619;DHT22;8928;51.678;6.074;2022-09-09T09:47:05;20.80;99.90
17619;DHT22;8928;51.678;6.074;2022-09-09T09:49:52;20.50;99.90
17619;DHT22;8928;51.678;6.074;2022-09-09T09:52:41;20.10;99.90
17619;DHT22;8928;51.678;6.074;2022-09-09T09:55:32;19.80;99.90
17619;DHT22;8928;51.678;6.074;2022-09-09T09:58:20;19.60;99.90
17619;DHT22;8928;51.678;6.074;2022-09-09T10:01:20;19.70;99.90
17619;DHT22;8928;51.678;6.074;2022-09-09T10:04:15;19.70;99.90
17619;DHT22;8928;51.678;6.074;2022-09-09T10:07:10;19.60;99.90
17619;DHT22;8928;51.678;6.074;2022-09-09T10:09:59;19.50;99.90
17619;DHT22;8928;51.678;6.074;2022-09-09T10:12:54;19.60;99.90
17619;DHT22;8928;51.678;6.074;2022-09-09T10:15:53;19.50;99.90
17619;DHT22;8928;51.678;6.074;2022-09-09T10:18:53;19.50;99.90
17619;DHT22;8928;51.678;6.074;2022-09-09T10:22:04;19.60;99.90
17619;DHT22;8928;51.678;6.074;2022-09-09T10:25:14;19.50;99.90
17619;DHT22;8928;51.678;6.074;2022-09-09T10:28:18;19.30;99.90
17619;DHT22;8928;51.678;6.074;2022-09-09T10:31:19;19.30;99.90
17619;DHT22;8928;51.678;6.074;2022-09-09T10:34:17;19.30;99.90
17619;DHT22;8928;51.678;6.074;2022-09-09T10:37:16;19.20;99.90
17619;DHT22;8928;51.678;6.074;2022-09-09T10:40:23;19.20;99.90
17619;DHT22;8928;51.678;6.074;2022-09-09T10:43:25;19.20;99.90
17619;DHT22;8928;51.678;6.074;2022-09-09T10:46:17;19.10;99.90
17619;DHT22;8928;51.678;6.074;2022-09-09T10:49:20;19.20;99.90
17619;DHT22;8928;51.678;6.074;2022-09-09T10:52:15;19.60;99.90
17619;DHT22;8928;51.678;6.074;2022-09-09T10:55:11;19.90;99.90
17619;DHT22;8928;51.678;6.074;2022-09-09T10:58:03;20.10;99.90
17619;DHT22;8928;51.678;6.074;2022-09-09T11:00:54;20.20;99.90
17619;DHT22;8928;51.678;6.074;2022-09-09T11:03:43;20.40;99.90
17619;DHT22;8928;51.678;6.074;2022-09-09T11:06:38;20.70;99.90
17619;DHT22;8928;51.678;6.074;2022-09-09T11:09:30;21.00;99.90
17619;DHT22;8928;51.678;6.074;2022-09-09T11:12:19;20.90;99.90
17619;DHT22;8928;51.678;6.074;2022-09-09T11:15:15;20.70;99.90
17619;DHT22;8928;51.678;6.074;2022-09-09T11:18:04;20.40;99.90
17619;DHT22;8928;51.678;6.074;2022-09-09T11:20:57;20.10;99.90
17619;DHT22;8928;51.678;6.074;2022-09-09T11:23:48;19.90;99.90
17619;DHT22;8928;51.678;6.074;2022-09-09T11:26:41;19.70;99.90
17619;DHT22;8928;51.678;6.074;2022-09-09T11:29:57;19.50;99.90
17619;DHT22;8928;51.678;6.074;2022-09-09T11:33:11;19.00;99.90
17619;DHT22;8928;51.678;6.074;2022-09-09T11:36:21;18.60;99.90
17619;DHT22;8928;51.678;6.074;2022-09-09T11:42:28;17.80;99.90
17619;DHT22;8928;51.678;6.074;2022-09-09T11:45:22;17.70;99.90
17619;DHT22;8928;51.678;6.074;2022-09-09T11:48:26;17.60;99.90
17619;DHT22;8928;51.678;6.074;2022-09-09T11:51:27;17.50;99.90
17619;DHT22;8928;51.678;6.074;2022-09-09T11:54:28;17.20;99.90
17619;DHT22;8928;51.678;6.074;2022-09-09T11:57:25;16.70;99.90
17619;DHT22;8928;51.678;6.074;2022-09-09T12:00:32;16.40;99.90
17619;DHT22;8928;51.678;6.074;2022-09-09T12:03:35;16.20;99.90
17619;DHT22;8928;51.678;6.074;2022-09-09T12:06:28;16.20;99.90
17619;DHT22;8928;51.678;6.074;2022-09-09T12:09:21;16.10;99.90
17619;DHT22;8928;51.678;6.074;2022-09-09T12:12:28;16.10;99.90
17619;DHT22;8928;51.678;6.074;2022-09-09T12:15:25;16.10;99.90
17619;DHT22;8928;51.678;6.074;2022-09-09T12:18:15;16.10;99.90
17619;DHT22;8928;51.678;6.074;2022-09-09T12:21:08;16.10;99.90
17619;DHT22;8928;51.678;6.074;2022-09-09T12:24:02;16.10;99.90
17619;DHT22;8928;51.678;6.074;2022-09-09T12:26:56;16.10;99.90
17619;DHT22;8928;51.678;6.074;2022-09-09T12:29:51;16.10;99.90
17619;DHT22;8928;51.678;6.074;2022-09-09T12:32:40;16.20;99.90
17619;DHT22;8928;51.678;6.074;2022-09-09T12:35:30;16.80;99.90
17619;DHT22;8928;51.678;6.074;2022-09-09T12:38:26;17.50;99.90
17619;DHT22;8928;51.678;6.074;2022-09-09T12:41:20;17.90;99.90
17619;DHT22;8928;51.678;6.074;2022-09-09T12:44:09;17.90;99.90
17619;DHT22;8928;51.678;6.074;2022-09-09T12:48:44;18.10;99.90
17619;DHT22;8928;51.678;6.074;2022-09-09T12:50:53;18.20;99.90
17619;DHT22;8928;51.678;6.074;2022-09-09T12:53:43;18.20;99.90
17619;DHT22;8928;51.678;6.074;2022-09-09T12:56:32;18.20;99.90
17619;DHT22;8928;51.678;6.074;2022-09-09T12:59:23;18.30;99.90
17619;DHT22;8928;51.678;6.074;2022-09-09T13:02:18;18.80;99.90
17619;DHT22;8928;51.678;6.074;2022-09-09T13:05:15;19.30;99.90
17619;DHT22;8928;51.678;6.074;2022-09-09T13:08:05;19.80;99.90
17619;DHT22;8928;51.678;6.074;2022-09-09T13:10:56;20.40;99.90
17619;DHT22;8928;51.678;6.074;2022-09-09T13:13:51;21.00;99.90
17619;DHT22;8928;51.678;6.074;2022-09-09T13:16:39;21.10;99.90
17619;DHT22;8928;51.678;6.074;2022-09-09T13:19:29;21.10;99.90
17619;DHT22;8928;51.678;6.074;2022-09-09T13:22:21;21.20;99.90
17619;DHT22;8928;51.678;6.074;2022-09-09T13:25:19;21.60;99.90
17619;DHT22;8928;51.678;6.074;2022-09-09T13:28:21;22.20;99.90
17619;DHT22;8928;51.678;6.074;2022-09-09T13:31:20;22.10;99.90
17619;DHT22;8928;51.678;6.074;2022-09-09T13:34:12;22.60;99.90
17619;DHT22;8928;51.678;6.074;2022-09-09T13:37:00;22.90;99.90
17619;DHT22;8928;51.678;6.074;2022-09-09T13:39:52;22.40;99.90
17619;DHT22;8928;51.678;6.074;2022-09-09T13:42:41;21.80;99.90
17619;DHT22;8928;51.678;6.074;2022-09-09T13:45:30;21.10;99.90
17619;DHT22;8928;51.678;6.074;2022-09-09T13:48:18;20.40;99.90
17619;DHT22;8928;51.678;6.074;2022-09-09T13:51:23;19.90;99.90
17619;DHT22;8928;51.678;6.074;2022-09-09T13:54:14;19.50;99.90
17619;DHT22;8928;51.678;6.074;2022-09-09T13:57:01;19.60;99.90
17619;DHT22;8928;51.678;6.074;2022-09-09T13:59:51;19.80;99.90
17619;DHT22;8928;51.678;6.074;2022-09-09T14:02:41;19.80;99.90
17619;DHT22;8928;51.678;6.074;2022-09-09T14:05:30;19.70;99.90
17619;DHT22;8928;51.678;6.074;2022-09-09T14:08:24;19.60;99.90
17619;DHT22;8928;51.678;6.074;2022-09-09T14:11:12;19.40;99.90
17619;DHT22;8928;51.678;6.074;2022-09-09T14:14:00;19.40;99.90
17619;DHT22;8928;51.678;6.074;2022-09-09T14:16:47;19.40;99.90
17619;DHT22;8928;51.678;6.074;2022-09-09T14:19:35;19.40;99.90
17619;DHT22;8928;51.678;6.074;2022-09-09T14:22:23;19.60;99.90
17619;DHT22;8928;51.678;6.074;2022-09-09T14:25:11;19.80;99.90
17619;DHT22;8928;51.678;6.074;2022-09-09T14:27:59;19.90;99.90
17619;DHT22;8928;51.678;6.074;2022-09-09T14:30:46;20.10;99.90
17619;DHT22;8928;51.678;6.074;2022-09-09T14:33:33;20.10;99.90
17619;DHT22;8928;51.678;6.074;2022-09-09T14:36:21;20.00;99.90
17619;DHT22;8928;51.678;6.074;2022-09-09T14:39:10;19.70;99.90
17619;DHT22;8928;51.678;6.074;2022-09-09T14:41:57;19.50;99.90
17619;DHT22;8928;51.678;6.074;2022-09-09T14:44:44;19.10;99.90
17619;DHT22;8928;51.678;6.074;2022-09-09T14:47:31;18.70;99.90
17619;DHT22;8928;51.678;6.074;2022-09-09T14:50:18;18.40;99.90
17619;DHT22;8928;51.678;6.074;2022-09-09T14:53:07;18.10;99.90
17619;DHT22;8928;51.678;6.074;2022-09-09T14:56:03;18.40;99.90
17619;DHT22;8928;51.678;6.074;2022-09-09T14:58:52;19.60;99.90
17619;DHT22;8928;51.678;6.074;2022-09-09T15:01:39;20.80;99.90
17619;DHT22;8928;51.678;6.074;2022-09-09T15:04:26;21.80;99.90
17619;DHT22;8928;51.678;6.074;2022-09-09T15:07:13;23.00;99.90
17619;DHT22;8928;51.678;6.074;2022-09-09T15:10:03;22.70;99.90
17619;DHT22;8928;51.678;6.074;2022-09-09T15:12:50;21.70;99.90
17619;DHT22;8928;51.678;6.074;2022-09-09T15:15:37;20.60;99.90
17619;DHT22;8928;51.678;6.074;2022-09-09T15:18:24;20.00;99.90
17619;DHT22;8928;51.678;6.074;2022-09-09T15:21:11;19.50;99.90
17619;DHT22;8928;51.678;6.074;2022-09-09T15:23:59;19.10;99.90
17619;DHT22;8928;51.678;6.074;2022-09-09T15:26:47;19.10;99.90
17619;DHT22;8928;51.678;6.074;2022-09-09T15:29:34;19.70;99.90
17619;DHT22;8928;51.678;6.074;2022-09-09T15:32:21;19.90;99.90
17619;DHT22;8928;51.678;6.074;2022-09-09T15:35:08;20.40;99.90
17619;DHT22;8928;51.678;6.074;2022-09-09T15:37:55;21.40;99.90
17619;DHT22;8928;51.678;6.074;2022-09-09T15:40:43;22.00;99.90
17619;DHT22;8928;51.678;6.074;2022-09-09T15:43:31;22.50;99.90
17619;DHT22;8928;51.678;6.074;2022-09-09T15:46:25;22.70;99.90
17619;DHT22;8928;51.678;6.074;2022-09-09T15:49:14;22.00;99.90
17619;DHT22;8928;51.678;6.074;2022-09-09T15:52:03;20.90;99.90
17619;DHT22;8928;51.678;6.074;2022-09-09T15:54:50;20.20;99.90
17619;DHT22;8928;51.678;6.074;2022-09-09T15:57:37;19.60;99.90
17619;DHT22;8928;51.678;6.074;2022-09-09T16:00:25;19.00;99.90
17619;DHT22;8928;51.678;6.074;2022-09-09T16:03:13;18.70;99.90
17619;DHT22;8928;51.678;6.074;2022-09-09T16:06:01;18.40;99.90
17619;DHT22;8928;51.678;6.074;2022-09-09T16:08:50;18.20;99.90
17619;DHT22;8928;51.678;6.074;2022-09-09T16:11:38;18.00;99.90
17619;DHT22;8928;51.678;6.074;2022-09-09T16:14:25;17.90;99.90
17619;DHT22;8928;51.678;6.074;2022-09-09T16:17:14;17.90;99.90
17619;DHT22;8928;51.678;6.074;2022-09-09T16:20:02;17.80;99.90
17619;DHT22;8928;51.678;6.074;2022-09-09T16:22:49;17.70;99.90
17619;DHT22;8928;51.678;6.074;2022-09-09T16:25:37;17.60;99.90
17619;DHT22;8928;51.678;6.074;2022-09-09T16:28:24;17.30;99.90
17619;DHT22;8928;51.678;6.074;2022-09-09T16:31:13;16.50;99.90
17619;DHT22;8928;51.678;6.074;2022-09-09T16:34:02;15.90;99.90
17619;DHT22;8928;51.678;6.074;2022-09-09T16:36:50;15.50;99.90
17619;DHT22;8928;51.678;6.074;2022-09-09T16:39:37;15.30;99.90
17619;DHT22;8928;51.678;6.074;2022-09-09T16:42:24;15.10;99.90
17619;DHT22;8928;51.678;6.074;2022-09-09T16:45:11;15.00;99.90
17619;DHT22;8928;51.678;6.074;2022-09-09T16:47:58;15.00;99.90
17619;DHT22;8928;51.678;6.074;2022-09-09T16:50:47;14.90;99.90
17619;DHT22;8928;51.678;6.074;2022-09-09T16:53:34;14.90;99.90
17619;DHT22;8928;51.678;6.074;2022-09-09T16:56:24;14.80;99.90
17619;DHT22;8928;51.678;6.074;2022-09-09T16:59:13;14.80;99.90
17619;DHT22;8928;51.678;6.074;2022-09-09T17:02:00;14.70;99.90
17619;DHT22;8928;51.678;6.074;2022-09-09T17:04:50;14.70;99.90
17619;DHT22;8928;51.678;6.074;2022-09-09T17:07:39;14.70;99.90
17619;DHT22;8928;51.678;6.074;2022-09-09T17:10:26;14.60;99.90
17619;DHT22;8928;51.678;6.074;2022-09-09T17:13:13;14.60;99.90
17619;DHT22;8928;51.678;6.074;2022-09-09T17:16:03;14.70;99.90
17619;DHT22;8928;51.678;6.074;2022-09-09T17:18:52;14.70;99.90
17619;DHT22;8928;51.678;6.074;2022-09-09T17:21:39;14.80;99.90
17619;DHT22;8928;51.678;6.074;2022-09-09T17:24:28;14.90;99.90
17619;DHT22;8928;51.678;6.074;2022-09-09T17:27:15;14.90;99.90
17619;DHT22;8928;51.678;6.074;2022-09-09T17:30:03;14.80;99.90
17619;DHT22;8928;51.678;6.074;2022-09-09T17:32:50;14.80;99.90
17619;DHT22;8928;51.678;6.074;2022-09-09T17:35:37;14.70;99.90
17619;DHT22;8928;51.678;6.074;2022-09-09T17:38:24;14.70;99.90
17619;DHT22;8928;51.678;6.074;2022-09-09T17:41:15;14.70;99.90
17619;DHT22;8928;51.678;6.074;2022-09-09T17:44:03;14.70;99.90
17619;DHT22;8928;51.678;6.074;2022-09-09T17:46:50;14.70;99.90
17619;DHT22;8928;51.678;6.074;2022-09-09T17:49:37;14.70;99.90
17619;DHT22;8928;51.678;6.074;2022-09-09T17:52:25;14.60;99.90
17619;DHT22;8928;51.678;6.074;2022-09-09T17:55:12;14.60;99.90
17619;DHT22;8928;51.678;6.074;2022-09-09T17:58:01;14.70;99.90
17619;DHT22;8928;51.678;6.074;2022-09-09T18:00:48;14.70;99.90
17619;DHT22;8928;51.678;6.074;2022-09-09T18:03:36;14.70;99.90
17619;DHT22;8928;51.678;6.074;2022-09-09T18:06:27;14.70;99.90
17619;DHT22;8928;51.678;6.074;2022-09-09T18:09:17;14.70;99.90
17619;DHT22;8928;51.678;6.074;2022-09-09T18:12:04;14.70;99.90
17619;DHT22;8928;51.678;6.074;2022-09-09T18:14:53;14.70;99.90
17619;DHT22;8928;51.678;6.074;2022-09-09T18:17:40;14.70;99.90
17619;DHT22;8928;51.678;6.074;2022-09-09T18:20:27;14.70;99.90
17619;DHT22;8928;51.678;6.074;2022-09-09T18:23:14;14.70;99.90